createdAt,value
2022-12-03T00:02:00.824Z,80.27
2022-12-03T00:04:27.345Z,80.85
2022-12-03T00:06:53.842Z,79.44
2022-12-03T00:09:20.359Z,80.68
2022-12-03T00:11:46.745Z,80.97
2022-12-03T00:14:13.293Z,80.35
2022-12-03T00:16:39.736Z,79.19
2022-12-03T00:19:07.681Z,79.80
2022-12-03T00:21:34.355Z,80.42
2022-12-03T00:24:00.842Z,80.36
2022-12-03T00:26:28.022Z,78.83
2022-12-03T00:28:54.980Z,80.25
2022-12-03T00:31:23.522Z,80.22
2022-12-03T00:33:50.628Z,80.46
2022-12-03T00:36:17.117Z,80.47
2022-12-03T00:38:43.582Z,79.91
2022-12-03T00:41:10.117Z,79.76
2022-12-03T00:43:36.534Z,80.39
2022-12-03T00:46:03.005Z,79.12
2022-12-03T00:48:29.562Z,80.15
2022-12-03T00:50:56.076Z,79.31
2022-12-03T00:53:22.639Z,80.89
2022-12-03T00:55:50.619Z,79.31
2022-12-03T00:58:17.723Z,79.99
2022-12-03T01:00:44.172Z,81.17
2022-12-03T01:03:10.753Z,80.95
2022-12-03T01:05:37.206Z,79.28
2022-12-03T01:08:03.829Z,79.56
2022-12-03T01:10:33.025Z,79.59
2022-12-03T01:12:59.489Z,80.49
2022-12-03T01:15:25.938Z,80.23
2022-12-03T01:17:54.197Z,79.35
2022-12-03T01:20:23.524Z,79.78
2022-12-03T01:22:50.045Z,80.23
2022-12-03T01:25:21.341Z,79.32
2022-12-03T01:28:22.077Z,79.40
2022-12-03T01:31:10.321Z,80.31
2022-12-03T01:33:37.558Z,79.29
2022-12-03T01:36:04.196Z,79.10
2022-12-03T01:38:30.612Z,80.52
2022-12-03T01:40:57.081Z,79.10
2022-12-03T01:43:23.751Z,79.39
2022-12-03T01:45:50.221Z,79.76
2022-12-03T01:48:17.018Z,79.06
2022-12-03T01:50:46.327Z,80.50
2022-12-03T01:53:15.589Z,80.15
2022-12-03T01:55:46.947Z,80.38
2022-12-03T01:58:15.772Z,80.36
2022-12-03T02:00:45.022Z,79.55
2022-12-03T02:03:15.149Z,79.02
2022-12-03T02:05:41.748Z,79.05
2022-12-03T02:08:26.962Z,80.48
2022-12-03T02:10:53.474Z,79.49
2022-12-03T02:13:20.055Z,79.44
2022-12-03T02:15:46.635Z,79.59
2022-12-03T02:18:13.201Z,79.38
2022-12-03T02:20:53.192Z,80.29
2022-12-03T02:23:34.387Z,80.29
2022-12-03T02:26:00.913Z,80.18
2022-12-03T02:28:28.248Z,78.75
2022-12-03T02:30:54.882Z,79.81
2022-12-03T02:33:21.357Z,79.88
2022-12-03T02:35:48.401Z,79.09
2022-12-03T02:38:21.255Z,80.15
2022-12-03T02:40:49.229Z,78.59
2022-12-03T02:43:16.718Z,80.50
2022-12-03T02:45:44.468Z,79.86
2022-12-03T02:48:11.507Z,80.63
2022-12-03T02:50:40.421Z,79.05
2022-12-03T02:53:08.360Z,80.59
2022-12-03T02:55:37.390Z,80.23
2022-12-03T02:58:07.151Z,79.08
2022-12-03T03:00:35.337Z,79.75
2022-12-03T03:03:03.585Z,80.27
2022-12-03T03:05:36.774Z,79.32
2022-12-03T03:08:04.102Z,79.94
2022-12-03T03:10:31.709Z,79.80
2022-12-03T03:12:58.433Z,80.13
2022-12-03T03:15:25.424Z,79.84
2022-12-03T03:17:52.019Z,80.61
2022-12-03T03:20:18.650Z,80.73
2022-12-03T03:22:45.113Z,81.44
2022-12-03T03:25:15.343Z,79.77
2022-12-03T03:27:42.096Z,80.85
2022-12-03T03:30:09.968Z,80.35
2022-12-03T03:32:37.160Z,80.36
2022-12-03T03:35:03.953Z,80.06
2022-12-03T03:37:30.737Z,81.65
2022-12-03T03:39:57.392Z,80.30
2022-12-03T03:42:24.112Z,81.43
2022-12-03T03:44:50.758Z,80.29
2022-12-03T03:47:17.977Z,79.96
2022-12-03T03:49:44.563Z,80.57
2022-12-03T03:52:11.829Z,79.55
2022-12-03T03:54:39.327Z,79.14
2022-12-03T03:57:06.021Z,80.77
2022-12-03T03:59:32.496Z,79.75
2022-12-03T04:01:58.954Z,80.63
2022-12-03T04:04:28.953Z,80.49
2022-12-03T04:06:55.419Z,80.80
2022-12-03T04:09:21.875Z,81.33
2022-12-03T04:12:07.003Z,81.09
2022-12-03T04:14:33.476Z,81.40
2022-12-03T04:16:59.971Z,81.44
2022-12-03T04:19:26.443Z,80.09
2022-12-03T04:22:11.735Z,80.78
2022-12-03T04:24:38.182Z,80.32
2022-12-03T04:27:23.486Z,81.15
2022-12-03T04:29:50.155Z,79.73
2022-12-03T04:32:35.347Z,79.82
2022-12-03T04:35:20.262Z,79.70
2022-12-03T04:37:46.752Z,80.22
2022-12-03T04:40:32.240Z,79.90
2022-12-03T04:42:58.683Z,79.79
2022-12-03T04:45:25.149Z,79.67
2022-12-03T04:47:51.643Z,80.24
2022-12-03T04:50:18.059Z,79.24
2022-12-03T04:52:44.552Z,78.96
2022-12-03T04:55:11.051Z,79.61
2022-12-03T04:57:37.443Z,79.65
2022-12-03T05:00:04.743Z,79.41
2022-12-03T05:02:31.187Z,80.08
2022-12-03T05:04:57.676Z,79.55
2022-12-03T05:07:24.153Z,78.92
2022-12-03T05:09:50.738Z,80.10
2022-12-03T05:12:17.099Z,79.65
2022-12-03T05:14:43.499Z,79.93
2022-12-03T05:17:10.058Z,80.37
2022-12-03T05:19:55.100Z,79.79
2022-12-03T05:22:21.528Z,80.85
2022-12-03T05:24:47.947Z,79.65
2022-12-03T05:27:23.471Z,80.91
2022-12-03T05:29:50.333Z,80.81
2022-12-03T05:32:16.796Z,80.18
2022-12-03T05:34:43.188Z,81.49
2022-12-03T05:37:09.905Z,80.44
2022-12-03T05:39:36.364Z,79.83
2022-12-03T05:42:21.628Z,79.64
2022-12-03T05:44:48.082Z,80.78
2022-12-03T05:47:14.587Z,81.36
2022-12-03T05:49:41.012Z,80.52
2022-12-03T05:52:07.437Z,80.42
2022-12-03T05:54:33.982Z,79.60
2022-12-03T05:57:00.388Z,79.72
2022-12-03T05:59:27.992Z,79.73
2022-12-03T06:01:54.432Z,79.59
2022-12-03T06:04:20.827Z,79.52
2022-12-03T06:06:47.221Z,80.48
2022-12-03T06:09:13.595Z,79.81
2022-12-03T06:11:40.630Z,80.51
2022-12-03T06:14:07.174Z,81.18
2022-12-03T06:16:33.734Z,80.30
2022-12-03T06:19:00.622Z,79.85
2022-12-03T06:21:28.223Z,81.06
2022-12-03T06:23:54.666Z,81.25
2022-12-03T06:26:21.081Z,80.04
2022-12-03T06:28:49.097Z,80.64
2022-12-03T06:31:16.057Z,80.49
2022-12-03T06:33:42.590Z,79.96
2022-12-03T06:36:09.067Z,81.27
2022-12-03T06:38:35.514Z,81.44
2022-12-03T06:41:01.885Z,81.29
2022-12-03T06:43:30.729Z,80.26
2022-12-03T06:45:57.155Z,80.18
2022-12-03T06:48:23.844Z,80.14
2022-12-03T06:50:50.227Z,81.23
2022-12-03T06:53:16.722Z,80.16
2022-12-03T06:55:43.268Z,81.21
2022-12-03T06:58:09.758Z,79.57
2022-12-03T07:00:36.400Z,80.10
2022-12-03T07:03:02.957Z,81.04
2022-12-03T07:05:29.407Z,80.09
2022-12-03T07:07:55.997Z,81.25
2022-12-03T07:10:24.816Z,80.13
2022-12-03T07:12:51.417Z,80.15
2022-12-03T07:15:18.676Z,80.31
2022-12-03T07:17:45.167Z,80.44
2022-12-03T07:20:12.028Z,80.85
2022-12-03T07:22:38.510Z,81.36
2022-12-03T07:25:05.368Z,81.64
2022-12-03T07:27:31.835Z,81.48
2022-12-03T07:29:58.306Z,80.21
2022-12-03T07:32:24.732Z,81.68
2022-12-03T07:34:51.675Z,79.89
2022-12-03T07:37:22.869Z,80.03
2022-12-03T07:39:52.644Z,79.67
2022-12-03T07:42:19.115Z,80.22
2022-12-03T07:44:45.482Z,80.57
2022-12-03T07:47:12.978Z,80.81
2022-12-03T07:49:39.401Z,80.07
2022-12-03T07:52:07.227Z,80.34
2022-12-03T07:54:33.683Z,79.87
2022-12-03T07:57:01.822Z,79.76
2022-12-03T07:59:29.017Z,80.72
2022-12-03T08:01:55.773Z,80.09
2022-12-03T08:04:23.754Z,79.44
2022-12-03T08:06:50.315Z,79.50
2022-12-03T08:09:16.809Z,80.33
2022-12-03T08:11:45.439Z,79.44
2022-12-03T08:14:13.581Z,79.54
2022-12-03T08:16:41.945Z,79.16
2022-12-03T08:19:11.872Z,79.07
2022-12-03T08:21:38.980Z,79.25
2022-12-03T08:24:18.912Z,79.24
2022-12-03T08:26:46.325Z,79.89
2022-12-03T08:29:16.214Z,79.79
2022-12-03T08:31:47.331Z,78.86
2022-12-03T08:34:17.612Z,79.88
2022-12-03T08:36:44.321Z,78.80
2022-12-03T08:39:33.878Z,78.54
2022-12-03T08:42:30.925Z,78.57
2022-12-03T08:44:59.999Z,78.01
2022-12-03T08:47:26.421Z,78.25
2022-12-03T08:49:58.118Z,78.04
2022-12-03T08:52:30.189Z,77.78
2022-12-03T08:54:57.127Z,78.25
2022-12-03T08:57:23.844Z,77.95
2022-12-03T08:59:51.567Z,78.26
2022-12-03T09:02:23.318Z,78.42
2022-12-03T09:04:55.047Z,77.31
2022-12-03T09:07:22.146Z,77.83
2022-12-03T09:09:48.599Z,77.31
2022-12-03T09:12:15.296Z,77.70
2022-12-03T09:14:41.669Z,77.94
2022-12-03T09:17:08.211Z,77.12
2022-12-03T09:19:34.840Z,77.53
2022-12-03T09:22:02.045Z,76.64
2022-12-03T09:24:28.435Z,77.35
2022-12-03T09:26:54.859Z,77.57
2022-12-03T09:29:22.227Z,76.95
2022-12-03T09:31:48.707Z,77.13
2022-12-03T09:34:15.668Z,77.89
2022-12-03T09:36:42.090Z,77.92
2022-12-03T09:39:08.573Z,77.52
2022-12-03T09:41:35.376Z,77.73
2022-12-03T09:44:04.790Z,76.40
2022-12-03T09:46:32.552Z,76.35
2022-12-03T09:49:00.432Z,76.70
2022-12-03T09:51:30.252Z,76.30
2022-12-03T09:53:58.241Z,76.15
2022-12-03T09:56:24.705Z,75.49
2022-12-03T09:58:51.246Z,76.03
2022-12-03T10:01:18.050Z,76.04
2022-12-03T10:03:49.309Z,76.06
2022-12-03T10:06:17.809Z,75.72
2022-12-03T10:08:48.144Z,75.92
2022-12-03T10:11:15.158Z,76.25
2022-12-03T10:13:41.868Z,75.75
2022-12-03T10:16:10.243Z,75.81
2022-12-03T10:18:41.584Z,75.85
2022-12-03T10:21:16.928Z,75.36
2022-12-03T10:23:43.681Z,75.31
2022-12-03T10:26:10.348Z,75.85
2022-12-03T10:28:38.695Z,75.94
2022-12-03T10:31:06.855Z,75.51
2022-12-03T10:33:44.892Z,76.31
2022-12-03T10:36:15.606Z,76.15
2022-12-03T10:38:42.167Z,76.73
2022-12-03T10:41:28.069Z,77.13
2022-12-03T10:43:54.546Z,76.52
2022-12-03T10:46:21.700Z,76.22
2022-12-03T10:49:07.101Z,76.43
2022-12-03T10:51:33.611Z,76.05
2022-12-03T10:54:01.514Z,77.09
2022-12-03T10:56:28.529Z,76.93
2022-12-03T10:58:56.049Z,76.08
2022-12-03T11:01:23.841Z,75.29
2022-12-03T11:03:51.298Z,75.26
2022-12-03T11:06:20.163Z,75.85
2022-12-03T11:08:53.025Z,75.08
2022-12-03T11:11:27.633Z,75.94
2022-12-03T11:13:57.764Z,75.51
2022-12-03T11:16:39.586Z,75.44
2022-12-03T11:19:06.047Z,76.47
2022-12-03T11:21:32.514Z,74.92
2022-12-03T11:23:58.987Z,75.43
2022-12-03T11:26:37.701Z,74.49
2022-12-03T11:29:04.931Z,74.82
2022-12-03T11:31:45.273Z,73.60
2022-12-03T11:34:18.707Z,74.32
2022-12-03T11:37:04.063Z,74.21
2022-12-03T11:39:49.439Z,75.38
2022-12-03T11:42:30.893Z,74.56
2022-12-03T11:45:06.583Z,75.71
2022-12-03T11:47:39.139Z,75.40
2022-12-03T11:50:18.090Z,75.33
2022-12-03T11:52:45.189Z,75.39
2022-12-03T11:55:14.459Z,75.48
2022-12-03T11:57:43.118Z,76.17
2022-12-03T12:00:10.362Z,75.89
2022-12-03T12:02:41.453Z,75.55
2022-12-03T12:05:14.824Z,75.19
2022-12-03T12:07:41.880Z,76.00
2022-12-03T12:10:08.626Z,75.87
2022-12-03T12:12:39.648Z,75.79
2022-12-03T12:15:24.845Z,75.70
2022-12-03T12:17:51.235Z,75.94
2022-12-03T12:20:24.692Z,75.26
2022-12-03T12:22:52.513Z,75.55
2022-12-03T12:25:36.600Z,76.37
2022-12-03T12:28:03.057Z,76.45
2022-12-03T12:30:29.675Z,76.81
2022-12-03T12:33:05.470Z,75.58
2022-12-03T12:35:32.972Z,75.47
2022-12-03T12:38:11.333Z,75.08
2022-12-03T12:40:39.294Z,75.25
2022-12-03T12:43:14.431Z,76.39
2022-12-03T12:45:43.727Z,75.38
2022-12-03T12:48:10.197Z,75.54
2022-12-03T12:50:37.701Z,75.84
2022-12-03T12:53:19.432Z,76.05
2022-12-03T12:55:46.069Z,76.51
2022-12-03T12:58:15.987Z,77.27
2022-12-03T13:00:42.652Z,76.26
2022-12-03T13:03:11.857Z,76.54
2022-12-03T13:05:43.065Z,76.02
2022-12-03T13:08:18.790Z,76.64
2022-12-03T13:10:45.339Z,75.54
2022-12-03T13:13:17.440Z,76.36
2022-12-03T13:15:43.832Z,76.76
2022-12-03T13:18:22.606Z,75.83
2022-12-03T13:20:49.300Z,76.68
2022-12-03T13:23:29.998Z,76.44
2022-12-03T13:26:02.256Z,75.86
2022-12-03T13:28:36.140Z,76.16
2022-12-03T13:31:18.083Z,77.37
2022-12-03T13:33:44.731Z,77.40
2022-12-03T13:36:13.383Z,76.80
2022-12-03T13:38:39.899Z,76.86
2022-12-03T13:41:32.529Z,77.53
2022-12-03T13:43:59.719Z,78.21
2022-12-03T13:46:28.515Z,77.71
2022-12-03T13:49:00.182Z,76.46
2022-12-03T13:51:30.689Z,77.98
2022-12-03T13:53:58.057Z,76.77
2022-12-03T13:56:32.102Z,76.95
2022-12-03T13:59:00.205Z,76.78
2022-12-03T14:01:28.037Z,77.34
2022-12-03T14:03:54.843Z,76.70
2022-12-03T14:06:21.292Z,77.61
2022-12-03T14:08:47.766Z,77.61
2022-12-03T14:11:36.598Z,76.70
2022-12-03T14:14:03.143Z,76.85
2022-12-03T14:16:29.643Z,76.28
2022-12-03T14:18:56.132Z,77.58
2022-12-03T14:21:22.557Z,77.44
2022-12-03T14:23:49.011Z,78.13
2022-12-03T14:26:18.342Z,78.50
2022-12-03T14:28:44.861Z,77.71
2022-12-03T14:31:11.497Z,77.07
2022-12-03T14:33:38.041Z,76.93
2022-12-03T14:36:04.587Z,78.39
2022-12-03T14:38:31.044Z,77.47
2022-12-03T14:40:57.432Z,77.42
2022-12-03T14:43:23.891Z,78.03
2022-12-03T14:45:50.651Z,78.61
2022-12-03T14:48:20.592Z,76.98
2022-12-03T14:50:47.056Z,77.85
2022-12-03T14:53:13.568Z,78.84
2022-12-03T14:55:40.130Z,78.12
2022-12-03T14:58:06.613Z,78.02
2022-12-03T15:00:33.033Z,78.84
2022-12-03T15:02:59.864Z,79.38
2022-12-03T15:05:28.894Z,78.42
2022-12-03T15:07:57.396Z,78.27
2022-12-03T15:10:23.908Z,78.59
2022-12-03T15:12:50.345Z,78.75
2022-12-03T15:15:16.799Z,78.07
2022-12-03T15:17:45.629Z,78.19
2022-12-03T15:20:12.778Z,78.77
2022-12-03T15:22:39.202Z,79.23
2022-12-03T15:25:07.581Z,78.29
2022-12-03T15:27:34.019Z,78.70
2022-12-03T15:30:00.487Z,78.43
2022-12-03T15:32:26.969Z,77.96
2022-12-03T15:34:53.404Z,79.45
2022-12-03T15:37:19.912Z,78.18
2022-12-03T15:39:48.633Z,77.99
2022-12-03T15:42:15.313Z,78.04
2022-12-03T15:44:41.805Z,77.67
2022-12-03T15:47:08.291Z,77.84
2022-12-03T15:49:34.718Z,78.63
2022-12-03T15:52:01.188Z,79.51
2022-12-03T15:54:27.674Z,78.57
2022-12-03T15:56:57.206Z,77.88
2022-12-03T15:59:24.235Z,79.07
2022-12-03T16:01:53.801Z,77.97
2022-12-03T16:04:20.344Z,79.33
2022-12-03T16:06:46.842Z,78.00
2022-12-03T16:09:13.245Z,79.03
2022-12-03T16:11:39.720Z,78.56
2022-12-03T16:14:06.208Z,79.86
2022-12-03T16:16:32.657Z,78.26
2022-12-03T16:18:59.551Z,79.39
2022-12-03T16:21:27.222Z,79.56
2022-12-03T16:23:54.168Z,79.91
2022-12-03T16:26:20.892Z,78.48
2022-12-03T16:28:48.259Z,78.34
2022-12-03T16:45:53.829Z,78.94
2022-12-03T16:48:20.512Z,78.42
2022-12-03T16:50:47.126Z,78.98
2022-12-03T16:53:14.665Z,78.68
2022-12-03T16:55:41.361Z,78.12
2022-12-03T16:58:07.963Z,78.27
2022-12-03T17:00:34.637Z,77.86
2022-12-03T17:03:01.961Z,77.88
2022-12-03T17:05:28.699Z,77.85
2022-12-03T17:07:55.368Z,78.37
2022-12-03T17:10:22.061Z,78.25
2022-12-03T17:13:08.824Z,79.24
2022-12-03T17:15:35.896Z,77.98
2022-12-03T17:18:05.953Z,78.15
2022-12-03T17:20:33.805Z,77.95
2022-12-03T17:23:01.442Z,77.75
2022-12-03T17:25:28.332Z,78.48
2022-12-03T17:27:54.913Z,78.04
2022-12-03T17:30:21.664Z,78.89
2022-12-03T17:32:50.345Z,78.08
2022-12-03T17:35:17.861Z,78.51
2022-12-03T17:37:44.456Z,79.25
2022-12-03T17:40:15.097Z,78.61
2022-12-03T17:42:41.656Z,78.76
2022-12-03T17:45:09.034Z,79.33
2022-12-03T17:47:35.869Z,79.06
2022-12-03T17:50:02.455Z,78.28
2022-12-03T17:52:29.049Z,79.70
2022-12-03T17:55:10.974Z,78.57
2022-12-03T17:57:38.679Z,78.62
2022-12-03T18:00:09.532Z,79.79
2022-12-03T18:02:39.504Z,78.92
2022-12-03T18:05:06.626Z,79.12
2022-12-03T18:07:33.384Z,78.19
2022-12-03T18:10:00.121Z,78.99
2022-12-03T18:12:26.671Z,78.63
2022-12-03T18:14:55.568Z,78.16
2022-12-03T18:17:23.459Z,79.28
2022-12-03T18:19:50.417Z,79.11
2022-12-03T18:22:17.275Z,78.91
2022-12-03T18:24:46.182Z,79.50
2022-12-03T18:27:15.089Z,78.45
2022-12-03T18:29:41.641Z,78.39
2022-12-03T18:32:27.209Z,79.73
2022-12-03T18:34:55.270Z,77.91
2022-12-03T18:37:23.609Z,79.21
2022-12-03T18:39:50.153Z,78.04
2022-12-03T18:42:21.947Z,77.98
2022-12-03T18:44:50.284Z,77.96
2022-12-03T18:47:20.052Z,78.57
2022-12-03T18:49:46.720Z,78.92
2022-12-03T18:52:15.375Z,79.00
2022-12-03T18:54:42.555Z,78.64
2022-12-03T18:57:09.250Z,79.24
2022-12-03T18:59:37.249Z,79.10
2022-12-03T19:02:05.314Z,79.10
2022-12-03T19:04:32.093Z,79.00
2022-12-03T19:06:58.766Z,78.08
2022-12-03T19:09:25.404Z,79.25
2022-12-03T19:11:52.020Z,78.36
2022-12-03T19:14:18.980Z,79.75
2022-12-03T19:16:45.716Z,79.53
2022-12-03T19:19:12.445Z,79.40
2022-12-03T19:21:39.145Z,78.44
2022-12-03T19:26:55.275Z,79.64
2022-12-03T19:29:25.021Z,78.66
2022-12-03T19:31:52.146Z,79.27
2022-12-03T19:34:18.996Z,78.60
2022-12-03T19:36:46.293Z,79.34
2022-12-03T19:39:12.930Z,79.93
2022-12-03T19:41:41.008Z,78.59
2022-12-03T19:44:10.870Z,79.10
2022-12-03T19:46:37.732Z,78.33
2022-12-03T19:49:04.825Z,79.36
2022-12-03T19:51:35.124Z,79.53
2022-12-03T19:54:07.048Z,79.83
2022-12-03T19:56:33.592Z,79.36
2022-12-03T19:59:00.168Z,79.30
2022-12-03T20:01:29.059Z,78.88
2022-12-03T20:03:57.687Z,78.71
2022-12-03T20:06:27.134Z,79.95
2022-12-03T20:09:06.913Z,78.89
2022-12-03T20:11:35.059Z,79.17
2022-12-03T20:14:07.585Z,78.50
2022-12-03T20:16:35.069Z,79.95
2022-12-03T20:19:04.577Z,79.84
2022-12-03T20:21:33.378Z,79.67
2022-12-03T20:24:00.774Z,78.74
2022-12-03T20:26:28.372Z,78.42
2022-12-03T20:28:55.988Z,79.00
2022-12-03T20:31:25.307Z,79.76
2022-12-03T20:33:54.734Z,78.50
2022-12-03T20:36:22.770Z,79.69
2022-12-03T20:38:57.143Z,79.69
2022-12-03T20:41:24.031Z,79.11
2022-12-03T20:43:51.059Z,79.05
2022-12-03T20:46:31.352Z,78.94
2022-12-03T20:48:58.711Z,79.76
2022-12-03T20:51:28.485Z,79.58
2022-12-03T20:53:56.180Z,79.88
2022-12-03T20:56:26.701Z,80.21
2022-12-03T20:58:53.952Z,78.84
2022-12-03T21:01:23.616Z,79.72
2022-12-03T21:03:51.536Z,79.16
2022-12-03T21:06:19.176Z,79.78
2022-12-03T21:08:46.253Z,79.36
2022-12-03T21:11:19.061Z,79.20
2022-12-03T21:13:46.659Z,79.50
2022-12-03T21:16:34.111Z,79.89
2022-12-03T21:19:07.265Z,79.66
2022-12-03T21:21:35.086Z,80.09
2022-12-03T21:24:01.620Z,79.39
2022-12-03T21:26:28.345Z,79.26
2022-12-03T21:28:55.056Z,80.18
2022-12-03T21:31:25.200Z,80.16
2022-12-03T21:33:55.952Z,79.71
2022-12-03T21:36:23.331Z,80.12
2022-12-03T21:38:50.117Z,79.90
2022-12-03T21:41:17.210Z,80.30
2022-12-03T21:43:44.329Z,79.74
2022-12-03T21:47:09.145Z,79.75
2022-12-03T21:49:01.658Z,79.66
2022-12-03T21:51:28.230Z,80.46
2022-12-03T21:53:54.862Z,80.37
2022-12-03T21:56:21.628Z,79.93
2022-12-03T21:58:48.281Z,80.27
2022-12-03T22:01:18.760Z,79.72
2022-12-03T22:03:45.695Z,79.37
2022-12-03T22:06:13.163Z,79.89
2022-12-03T22:08:39.868Z,80.51
2022-12-03T22:11:09.157Z,79.94
2022-12-03T22:13:38.782Z,80.12
2022-12-03T22:16:07.326Z,79.51
2022-12-03T22:18:34.386Z,79.34
2022-12-03T22:21:05.871Z,79.77
2022-12-03T22:23:32.702Z,79.42
2022-12-03T22:26:01.599Z,79.73
2022-12-03T22:28:28.714Z,79.14
2022-12-03T22:30:55.535Z,80.01
2022-12-03T22:33:22.871Z,79.93
2022-12-03T22:36:00.355Z,79.88
2022-12-03T22:38:29.345Z,79.74
2022-12-03T22:40:56.130Z,78.83
2022-12-03T22:43:23.088Z,79.84
2022-12-03T22:45:54.326Z,79.98
2022-12-03T22:48:22.211Z,79.66
2022-12-03T22:50:50.045Z,79.90
2022-12-03T22:53:17.586Z,79.93
2022-12-03T22:55:57.733Z,79.65
2022-12-03T22:58:25.041Z,79.69
2022-12-03T23:00:52.574Z,79.56
2022-12-03T23:03:19.444Z,79.56
2022-12-03T23:05:46.477Z,79.25
2022-12-03T23:08:19.409Z,78.83
2022-12-03T23:10:48.349Z,78.98
2022-12-03T23:13:15.846Z,79.63
2022-12-03T23:15:52.046Z,78.89
2022-12-03T23:18:19.257Z,79.69
2022-12-03T23:20:49.120Z,78.82
2022-12-03T23:23:16.356Z,79.26
2022-12-03T23:25:44.124Z,79.56
2022-12-03T23:28:10.932Z,79.57
2022-12-03T23:30:38.608Z,80.02
2022-12-03T23:33:06.736Z,79.82
2022-12-03T23:35:33.404Z,80.16
2022-12-03T23:38:00.031Z,79.87
2022-12-03T23:40:27.418Z,79.41
2022-12-03T23:42:54.012Z,79.28
2022-12-03T23:45:20.698Z,80.32
2022-12-03T23:47:47.302Z,79.14
2022-12-03T23:50:14.314Z,79.28
2022-12-03T23:52:40.876Z,79.86
2022-12-03T23:55:07.736Z,79.42
2022-12-03T23:57:34.880Z,79.13
